Glenshee, United Kingdom
Current Conditions -  °F | °C
As of 10:20 AM on Saturday 20 Dec 2014 (Local Time) from EGPN Reporting Station
Clear Clear  
Wind Chill: 35°   Ceiling: Unl
Heat Index: 43°   Visibility: 6mi
Dew Point: 34°   Wind: 15mph
Humidity: 70%   Direction: 290°WNW
Pressure: 29.97"   Gusts: NA
Location:  56.81°N, 3.46°W
Report Text: EGPN 201020Z 29013KT CAVOK 06/01 Q1015
Loading
Personal Weather Stations






























Interactive Weather Map New forecast layout! Learn more

10-Day Weather Forecast

Advertisements
Track Severe Weather on mobile